createdAt,value
2022-09-01T00:00:00.000Z,9.21
2022-09-01T00:15:00.000Z,10.26
2022-09-01T00:30:00.000Z,10.39
2022-09-01T00:45:00.000Z,9.92
2022-09-01T01:00:00.000Z,10.28
2022-09-01T01:15:00.000Z,11.16
2022-09-01T01:30:00.000Z,11.41
2022-09-01T01:45:00.000Z,11.6
2022-09-01T02:00:00.000Z,11.94
2022-09-01T02:15:00.000Z,11.74
2022-09-01T02:30:00.000Z,11.08
2022-09-01T02:45:00.000Z,11.22
2022-09-01T03:00:00.000Z,11.71
2022-09-01T03:15:00.000Z,11.51
2022-09-01T03:30:00.000Z,11.82
2022-09-01T03:45:00.000Z,11.93
2022-09-01T04:00:00.000Z,12.11
2022-09-01T04:15:00.000Z,13.01
2022-09-01T04:30:00.000Z,14.31
2022-09-01T04:45:00.000Z,13.18
2022-09-01T05:00:00.000Z,13.01
2022-09-01T05:15:00.000Z,13.4
2022-09-01T05:30:00.000Z,13.2
2022-09-01T05:45:00.000Z,12.62
2022-09-01T06:00:00.000Z,13.72
2022-09-01T06:15:00.000Z,14.56
2022-09-01T06:30:00.000Z,14.75
2022-09-01T06:45:00.000Z,14
2022-09-01T07:15:00.000Z,15.98
2022-09-01T07:30:00.000Z,14.34
2022-09-01T07:45:00.000Z,12.62
2022-09-01T08:00:00.000Z,9.84
2022-09-01T08:15:00.000Z,9.05
2022-09-01T08:30:00.000Z,8.01
2022-09-01T08:45:00.000Z,8.65
2022-09-01T09:00:00.000Z,7.99
2022-09-01T09:15:00.000Z,7.28
2022-09-01T09:30:00.000Z,6.73
2022-09-01T09:45:00.000Z,5.93
2022-09-01T10:00:00.000Z,5.14
2022-09-01T10:15:00.000Z,5.12
2022-09-01T10:30:00.000Z,5.19
2022-09-01T10:45:00.000Z,4.62
2022-09-01T11:00:00.000Z,4.78
2022-09-01T11:15:00.000Z,4.01
2022-09-01T11:30:00.000Z,3.4
2022-09-01T11:45:00.000Z,3.28
2022-09-01T12:00:00.000Z,3.25
2022-09-01T12:15:00.000Z,3.29
2022-09-01T12:30:00.000Z,3.24
2022-09-01T12:45:00.000Z,3.43
2022-09-01T13:00:00.000Z,3.22
2022-09-01T13:15:00.000Z,3.07
2022-09-01T13:30:00.000Z,3.18
2022-09-01T13:45:00.000Z,3.05
2022-09-01T14:00:00.000Z,2.68
2022-09-01T14:15:00.000Z,2.67
2022-09-01T14:30:00.000Z,2.65
2022-09-01T14:45:00.000Z,2.04
2022-09-01T15:00:00.000Z,2.09
2022-09-01T15:15:00.000Z,2.25
2022-09-01T15:30:00.000Z,3.07
2022-09-01T15:45:00.000Z,3.15
2022-09-01T16:00:00.000Z,2.47
2022-09-01T16:15:00.000Z,3.07
2022-09-01T16:30:00.000Z,2.95
2022-09-01T16:45:00.000Z,3.09
2022-09-01T17:00:00.000Z,2.95
2022-09-01T17:15:00.000Z,3.04
2022-09-01T17:30:00.000Z,2.98
2022-09-01T17:45:00.000Z,3.08
2022-09-01T18:00:00.000Z,3.29
2022-09-01T18:15:00.000Z,3.48
2022-09-01T18:30:00.000Z,3.52
2022-09-01T18:45:00.000Z,3.42
2022-09-01T19:00:00.000Z,3.2
2022-09-01T19:15:00.000Z,3.18
2022-09-01T19:30:00.000Z,3.16
2022-09-01T19:45:00.000Z,3.21
2022-09-01T20:00:00.000Z,3.14
2022-09-01T20:15:00.000Z,3.73
2022-09-01T20:30:00.000Z,3.88
2022-09-01T20:45:00.000Z,4.76
2022-09-01T21:00:00.000Z,5.28
2022-09-01T21:15:00.000Z,4.76
2022-09-01T21:30:00.000Z,5.38
2022-09-01T21:45:00.000Z,6.53
2022-09-01T22:00:00.000Z,5.38
2022-09-01T22:15:00.000Z,5.16
2022-09-01T22:30:00.000Z,5.82
2022-09-01T22:45:00.000Z,6.18
2022-09-01T23:00:00.000Z,5.54
2022-09-01T23:15:00.000Z,6.12
2022-09-01T23:30:00.000Z,6.65
2022-09-01T23:45:00.000Z,6.47
